sensor_id;sensor_type;location;lat;lon;timestamp;P1;durP1;ratioP1;P2;durP2;ratioP2
54539;SDS011;40438;52.992;18.604;2022-08-06T00:01:07;14.68;;;9.13;;
54539;SDS011;40438;52.992;18.604;2022-08-06T00:03:33;10.25;;;8.85;;
54539;SDS011;40438;52.992;18.604;2022-08-06T00:06:00;10.60;;;9.15;;
54539;SDS011;40438;52.992;18.604;2022-08-06T00:08:26;10.95;;;9.30;;
54539;SDS011;40438;52.992;18.604;2022-08-06T00:10:51;11.07;;;8.65;;
54539;SDS011;40438;52.992;18.604;2022-08-06T00:13:17;10.85;;;8.48;;
54539;SDS011;40438;52.992;18.604;2022-08-06T00:15:43;10.68;;;8.68;;
54539;SDS011;40438;52.992;18.604;2022-08-06T00:18:09;10.23;;;8.30;;
54539;SDS011;40438;52.992;18.604;2022-08-06T00:20:35;10.13;;;7.97;;
54539;SDS011;40438;52.992;18.604;2022-08-06T00:23:02;9.93;;;8.05;;
54539;SDS011;40438;52.992;18.604;2022-08-06T00:25:28;9.48;;;7.80;;
54539;SDS011;40438;52.992;18.604;2022-08-06T00:27:53;9.57;;;7.72;;
54539;SDS011;40438;52.992;18.604;2022-08-06T00:30:19;10.05;;;6.85;;
54539;SDS011;40438;52.992;18.604;2022-08-06T00:32:45;9.25;;;7.40;;
54539;SDS011;40438;52.992;18.604;2022-08-06T00:35:11;8.65;;;7.30;;
54539;SDS011;40438;52.992;18.604;2022-08-06T00:37:36;9.48;;;7.43;;
54539;SDS011;40438;52.992;18.604;2022-08-06T00:40:04;14.00;;;8.15;;
54539;SDS011;40438;52.992;18.604;2022-08-06T00:42:31;8.73;;;7.38;;
54539;SDS011;40438;52.992;18.604;2022-08-06T00:44:56;10.20;;;7.47;;
54539;SDS011;40438;52.992;18.604;2022-08-06T00:47:22;9.57;;;7.28;;
54539;SDS011;40438;52.992;18.604;2022-08-06T00:49:48;10.40;;;8.85;;
54539;SDS011;40438;52.992;18.604;2022-08-06T00:52:13;13.30;;;7.38;;
54539;SDS011;40438;52.992;18.604;2022-08-06T00:54:39;8.77;;;7.22;;
54539;SDS011;40438;52.992;18.604;2022-08-06T00:57:06;8.98;;;6.82;;
54539;SDS011;40438;52.992;18.604;2022-08-06T00:59:32;8.05;;;7.18;;
54539;SDS011;40438;52.992;18.604;2022-08-06T01:01:58;10.18;;;7.32;;
54539;SDS011;40438;52.992;18.604;2022-08-06T01:04:24;8.05;;;6.30;;
54539;SDS011;40438;52.992;18.604;2022-08-06T01:06:49;7.55;;;5.75;;
54539;SDS011;40438;52.992;18.604;2022-08-06T01:09:15;8.43;;;5.93;;
54539;SDS011;40438;52.992;18.604;2022-08-06T01:11:41;10.55;;;6.13;;
54539;SDS011;40438;52.992;18.604;2022-08-06T01:14:08;6.03;;;5.20;;
54539;SDS011;40438;52.992;18.604;2022-08-06T01:16:36;6.93;;;5.68;;
54539;SDS011;40438;52.992;18.604;2022-08-06T01:19:12;7.18;;;5.63;;
54539;SDS011;40438;52.992;18.604;2022-08-06T01:22:00;7.38;;;5.40;;
54539;SDS011;40438;52.992;18.604;2022-08-06T01:24:43;9.52;;;5.60;;
54539;SDS011;40438;52.992;18.604;2022-08-06T01:30:10;7.78;;;5.50;;
54539;SDS011;40438;52.992;18.604;2022-08-06T01:32:40;7.47;;;5.38;;
54539;SDS011;40438;52.992;18.604;2022-08-06T01:35:12;7.35;;;5.20;;
54539;SDS011;40438;52.992;18.604;2022-08-06T01:37:44;5.75;;;4.43;;
54539;SDS011;40438;52.992;18.604;2022-08-06T01:40:15;8.77;;;5.15;;
54539;SDS011;40438;52.992;18.604;2022-08-06T01:42:45;6.47;;;4.85;;
54539;SDS011;40438;52.992;18.604;2022-08-06T01:45:13;6.63;;;4.68;;
54539;SDS011;40438;52.992;18.604;2022-08-06T01:47:43;8.32;;;4.72;;
54539;SDS011;40438;52.992;18.604;2022-08-06T01:50:12;9.23;;;4.55;;
54539;SDS011;40438;52.992;18.604;2022-08-06T01:52:41;7.75;;;5.40;;
54539;SDS011;40438;52.992;18.604;2022-08-06T01:55:08;8.05;;;4.85;;
54539;SDS011;40438;52.992;18.604;2022-08-06T01:57:38;5.55;;;4.82;;
54539;SDS011;40438;52.992;18.604;2022-08-06T02:00:07;6.32;;;4.75;;
54539;SDS011;40438;52.992;18.604;2022-08-06T02:02:37;6.65;;;4.78;;
54539;SDS011;40438;52.992;18.604;2022-08-06T02:05:07;6.25;;;4.65;;
54539;SDS011;40438;52.992;18.604;2022-08-06T02:07:35;7.97;;;4.68;;
54539;SDS011;40438;52.992;18.604;2022-08-06T02:10:05;7.57;;;4.40;;
54539;SDS011;40438;52.992;18.604;2022-08-06T02:12:34;7.70;;;5.53;;
54539;SDS011;40438;52.992;18.604;2022-08-06T02:15:03;5.07;;;4.28;;
54539;SDS011;40438;52.992;18.604;2022-08-06T02:17:33;6.68;;;4.82;;
54539;SDS011;40438;52.992;18.604;2022-08-06T02:20:05;6.85;;;4.47;;
54539;SDS011;40438;52.992;18.604;2022-08-06T02:22:33;7.25;;;5.30;;
54539;SDS011;40438;52.992;18.604;2022-08-06T02:25:02;5.50;;;4.63;;
54539;SDS011;40438;52.992;18.604;2022-08-06T02:27:30;5.35;;;4.60;;
54539;SDS011;40438;52.992;18.604;2022-08-06T02:29:58;8.45;;;4.80;;
54539;SDS011;40438;52.992;18.604;2022-08-06T02:32:25;6.40;;;5.10;;
54539;SDS011;40438;52.992;18.604;2022-08-06T02:34:53;6.43;;;4.70;;
54539;SDS011;40438;52.992;18.604;2022-08-06T02:37:20;9.90;;;5.03;;
54539;SDS011;40438;52.992;18.604;2022-08-06T02:39:49;9.85;;;4.40;;
54539;SDS011;40438;52.992;18.604;2022-08-06T02:42:20;11.10;;;4.15;;
54539;SDS011;40438;52.992;18.604;2022-08-06T02:44:48;4.75;;;3.90;;
54539;SDS011;40438;52.992;18.604;2022-08-06T02:47:25;10.15;;;3.70;;
54539;SDS011;40438;52.992;18.604;2022-08-06T02:49:57;6.30;;;3.53;;
54539;SDS011;40438;52.992;18.604;2022-08-06T02:52:28;7.35;;;3.42;;
54539;SDS011;40438;52.992;18.604;2022-08-06T02:55:00;7.13;;;3.53;;
54539;SDS011;40438;52.992;18.604;2022-08-06T02:57:31;4.72;;;3.35;;
54539;SDS011;40438;52.992;18.604;2022-08-06T03:00:01;6.03;;;3.30;;
54539;SDS011;40438;52.992;18.604;2022-08-06T03:02:29;6.43;;;3.60;;
54539;SDS011;40438;52.992;18.604;2022-08-06T03:04:59;8.20;;;4.00;;
54539;SDS011;40438;52.992;18.604;2022-08-06T03:07:28;7.40;;;4.75;;
54539;SDS011;40438;52.992;18.604;2022-08-06T03:09:57;7.30;;;3.40;;
54539;SDS011;40438;52.992;18.604;2022-08-06T03:12:24;4.32;;;2.88;;
54539;SDS011;40438;52.992;18.604;2022-08-06T03:14:50;4.78;;;2.67;;
54539;SDS011;40438;52.992;18.604;2022-08-06T03:17:17;6.80;;;2.88;;
54539;SDS011;40438;52.992;18.604;2022-08-06T03:19:45;6.05;;;3.10;;
54539;SDS011;40438;52.992;18.604;2022-08-06T03:22:15;5.82;;;3.00;;
54539;SDS011;40438;52.992;18.604;2022-08-06T03:24:43;6.13;;;3.33;;
54539;SDS011;40438;52.992;18.604;2022-08-06T03:27:10;5.78;;;2.90;;
54539;SDS011;40438;52.992;18.604;2022-08-06T03:29:37;7.40;;;3.28;;
54539;SDS011;40438;52.992;18.604;2022-08-06T03:32:04;5.78;;;3.25;;
54539;SDS011;40438;52.992;18.604;2022-08-06T03:34:31;4.90;;;3.13;;
54539;SDS011;40438;52.992;18.604;2022-08-06T03:37:00;4.78;;;3.30;;
54539;SDS011;40438;52.992;18.604;2022-08-06T03:39:28;6.18;;;3.22;;
54539;SDS011;40438;52.992;18.604;2022-08-06T03:41:55;6.95;;;3.33;;
54539;SDS011;40438;52.992;18.604;2022-08-06T03:44:22;7.65;;;3.30;;
54539;SDS011;40438;52.992;18.604;2022-08-06T03:46:48;7.43;;;3.22;;
54539;SDS011;40438;52.992;18.604;2022-08-06T03:49:18;4.22;;;2.60;;
54539;SDS011;40438;52.992;18.604;2022-08-06T03:51:48;3.88;;;2.58;;
54539;SDS011;40438;52.992;18.604;2022-08-06T03:54:17;4.85;;;2.78;;
54539;SDS011;40438;52.992;18.604;2022-08-06T03:56:49;4.88;;;2.60;;
54539;SDS011;40438;52.992;18.604;2022-08-06T03:59:17;5.53;;;2.45;;
54539;SDS011;40438;52.992;18.604;2022-08-06T04:01:45;7.60;;;2.45;;
54539;SDS011;40438;52.992;18.604;2022-08-06T04:04:13;6.97;;;2.72;;
54539;SDS011;40438;52.992;18.604;2022-08-06T04:06:41;2.65;;;2.20;;
54539;SDS011;40438;52.992;18.604;2022-08-06T04:09:07;2.97;;;2.22;;
54539;SDS011;40438;52.992;18.604;2022-08-06T04:11:34;3.80;;;2.20;;
54539;SDS011;40438;52.992;18.604;2022-08-06T04:14:02;5.78;;;2.35;;
54539;SDS011;40438;52.992;18.604;2022-08-06T04:16:30;4.32;;;2.25;;
54539;SDS011;40438;52.992;18.604;2022-08-06T04:18:56;4.10;;;2.00;;
54539;SDS011;40438;52.992;18.604;2022-08-06T04:21:24;2.63;;;2.15;;
54539;SDS011;40438;52.992;18.604;2022-08-06T04:23:50;3.10;;;2.00;;
54539;SDS011;40438;52.992;18.604;2022-08-06T04:26:16;4.65;;;1.98;;
54539;SDS011;40438;52.992;18.604;2022-08-06T04:28:47;3.50;;;2.03;;
54539;SDS011;40438;52.992;18.604;2022-08-06T04:31:16;6.07;;;1.67;;
54539;SDS011;40438;52.992;18.604;2022-08-06T04:33:43;4.75;;;1.70;;
54539;SDS011;40438;52.992;18.604;2022-08-06T04:36:10;3.13;;;1.77;;
54539;SDS011;40438;52.992;18.604;2022-08-06T04:38:37;3.38;;;1.70;;
54539;SDS011;40438;52.992;18.604;2022-08-06T04:41:04;4.70;;;1.80;;
54539;SDS011;40438;52.992;18.604;2022-08-06T04:43:31;4.60;;;1.73;;
54539;SDS011;40438;52.992;18.604;2022-08-06T04:45:57;5.35;;;1.70;;
54539;SDS011;40438;52.992;18.604;2022-08-06T04:48:25;6.15;;;2.35;;
54539;SDS011;40438;52.992;18.604;2022-08-06T04:50:52;3.50;;;2.20;;
54539;SDS011;40438;52.992;18.604;2022-08-06T04:53:18;2.55;;;1.88;;
54539;SDS011;40438;52.992;18.604;2022-08-06T04:55:44;4.88;;;1.95;;
54539;SDS011;40438;52.992;18.604;2022-08-06T04:58:12;3.97;;;1.77;;
54539;SDS011;40438;52.992;18.604;2022-08-06T05:00:40;5.22;;;1.75;;
54539;SDS011;40438;52.992;18.604;2022-08-06T05:03:09;2.42;;;1.80;;
54539;SDS011;40438;52.992;18.604;2022-08-06T05:05:37;5.35;;;2.17;;
54539;SDS011;40438;52.992;18.604;2022-08-06T05:08:05;2.83;;;2.17;;
54539;SDS011;40438;52.992;18.604;2022-08-06T05:10:33;3.92;;;1.60;;
54539;SDS011;40438;52.992;18.604;2022-08-06T05:13:04;5.33;;;2.30;;
54539;SDS011;40438;52.992;18.604;2022-08-06T05:15:32;6.90;;;2.33;;
54539;SDS011;40438;52.992;18.604;2022-08-06T05:18:03;2.78;;;2.10;;
54539;SDS011;40438;52.992;18.604;2022-08-06T05:20:33;3.40;;;2.00;;
54539;SDS011;40438;52.992;18.604;2022-08-06T05:23:03;6.22;;;2.33;;
54539;SDS011;40438;52.992;18.604;2022-08-06T05:25:32;3.38;;;2.05;;
54539;SDS011;40438;52.992;18.604;2022-08-06T05:28:00;7.00;;;2.30;;
54539;SDS011;40438;52.992;18.604;2022-08-06T05:30:26;9.07;;;2.10;;
54539;SDS011;40438;52.992;18.604;2022-08-06T05:32:52;4.63;;;1.50;;
54539;SDS011;40438;52.992;18.604;2022-08-06T05:35:18;5.00;;;1.48;;
54539;SDS011;40438;52.992;18.604;2022-08-06T05:37:44;6.65;;;1.70;;
54539;SDS011;40438;52.992;18.604;2022-08-06T05:40:11;2.67;;;1.33;;
54539;SDS011;40438;52.992;18.604;2022-08-06T05:42:36;2.40;;;1.20;;
54539;SDS011;40438;52.992;18.604;2022-08-06T05:45:02;2.97;;;1.02;;
54539;SDS011;40438;52.992;18.604;2022-08-06T05:47:31;2.90;;;1.30;;
54539;SDS011;40438;52.992;18.604;2022-08-06T05:50:00;2.63;;;0.90;;
54539;SDS011;40438;52.992;18.604;2022-08-06T05:52:31;2.60;;;0.88;;
54539;SDS011;40438;52.992;18.604;2022-08-06T05:55:03;1.65;;;0.80;;
54539;SDS011;40438;52.992;18.604;2022-08-06T05:57:33;3.90;;;1.10;;
54539;SDS011;40438;52.992;18.604;2022-08-06T06:00:04;1.88;;;0.90;;
54539;SDS011;40438;52.992;18.604;2022-08-06T06:02:34;3.25;;;1.35;;
54539;SDS011;40438;52.992;18.604;2022-08-06T06:05:03;1.45;;;1.00;;
54539;SDS011;40438;52.992;18.604;2022-08-06T06:07:31;0.82;;;0.82;;
54539;SDS011;40438;52.992;18.604;2022-08-06T06:09:57;2.83;;;0.80;;
54539;SDS011;40438;52.992;18.604;2022-08-06T06:12:23;3.72;;;1.08;;
54539;SDS011;40438;52.992;18.604;2022-08-06T06:14:51;2.28;;;0.80;;
54539;SDS011;40438;52.992;18.604;2022-08-06T06:17:21;2.53;;;1.35;;
54539;SDS011;40438;52.992;18.604;2022-08-06T06:19:57;3.95;;;1.75;;
54539;SDS011;40438;52.992;18.604;2022-08-06T06:22:34;1.67;;;0.85;;
54539;SDS011;40438;52.992;18.604;2022-08-06T06:25:08;5.80;;;1.20;;
54539;SDS011;40438;52.992;18.604;2022-08-06T06:27:41;2.03;;;1.00;;
54539;SDS011;40438;52.992;18.604;2022-08-06T06:32:42;1.92;;;0.70;;
54539;SDS011;40438;52.992;18.604;2022-08-06T06:35:16;3.35;;;1.05;;
54539;SDS011;40438;52.992;18.604;2022-08-06T06:37:51;2.22;;;0.85;;
54539;SDS011;40438;52.992;18.604;2022-08-06T06:40:25;2.88;;;1.00;;
54539;SDS011;40438;52.992;18.604;2022-08-06T06:43:02;1.45;;;0.60;;
54539;SDS011;40438;52.992;18.604;2022-08-06T06:45:36;2.10;;;0.85;;
54539;SDS011;40438;52.992;18.604;2022-08-06T06:48:08;1.65;;;0.82;;
54539;SDS011;40438;52.992;18.604;2022-08-06T06:50:39;0.80;;;0.77;;
54539;SDS011;40438;52.992;18.604;2022-08-06T06:53:08;4.57;;;1.00;;
54539;SDS011;40438;52.992;18.604;2022-08-06T06:55:36;1.45;;;0.73;;
54539;SDS011;40438;52.992;18.604;2022-08-06T06:58:06;1.02;;;0.60;;
54539;SDS011;40438;52.992;18.604;2022-08-06T07:00:36;1.85;;;0.75;;
54539;SDS011;40438;52.992;18.604;2022-08-06T07:03:03;1.17;;;0.65;;
54539;SDS011;40438;52.992;18.604;2022-08-06T07:05:31;3.47;;;0.90;;
54539;SDS011;40438;52.992;18.604;2022-08-06T07:07:58;2.70;;;0.60;;
54539;SDS011;40438;52.992;18.604;2022-08-06T07:10:25;3.17;;;0.75;;
54539;SDS011;40438;52.992;18.604;2022-08-06T07:12:52;2.33;;;0.60;;
54539;SDS011;40438;52.992;18.604;2022-08-06T07:15:19;2.05;;;0.73;;
54539;SDS011;40438;52.992;18.604;2022-08-06T07:17:49;3.17;;;0.73;;
54539;SDS011;40438;52.992;18.604;2022-08-06T07:20:18;2.55;;;0.52;;
54539;SDS011;40438;52.992;18.604;2022-08-06T07:22:47;1.75;;;0.50;;
54539;SDS011;40438;52.992;18.604;2022-08-06T07:25:13;0.50;;;0.40;;
54539;SDS011;40438;52.992;18.604;2022-08-06T07:27:42;0.60;;;0.40;;
54539;SDS011;40438;52.992;18.604;2022-08-06T07:30:11;0.45;;;0.45;;
54539;SDS011;40438;52.992;18.604;2022-08-06T07:32:39;1.70;;;0.47;;
54539;SDS011;40438;52.992;18.604;2022-08-06T07:35:09;2.75;;;0.63;;
54539;SDS011;40438;52.992;18.604;2022-08-06T07:37:37;2.08;;;0.60;;
54539;SDS011;40438;52.992;18.604;2022-08-06T07:40:07;0.80;;;0.50;;
54539;SDS011;40438;52.992;18.604;2022-08-06T07:42:39;0.50;;;0.43;;
54539;SDS011;40438;52.992;18.604;2022-08-06T07:45:07;0.43;;;0.30;;
54539;SDS011;40438;52.992;18.604;2022-08-06T07:47:35;1.00;;;0.43;;
54539;SDS011;40438;52.992;18.604;2022-08-06T07:50:05;0.60;;;0.50;;
54539;SDS011;40438;52.992;18.604;2022-08-06T07:52:35;0.88;;;0.50;;
54539;SDS011;40438;52.992;18.604;2022-08-06T07:55:04;0.70;;;0.60;;
54539;SDS011;40438;52.992;18.604;2022-08-06T07:57:32;2.58;;;0.70;;
54539;SDS011;40438;52.992;18.604;2022-08-06T07:59:58;0.80;;;0.75;;
54539;SDS011;40438;52.992;18.604;2022-08-06T08:02:24;1.75;;;0.70;;
54539;SDS011;40438;52.992;18.604;2022-08-06T08:04:51;5.57;;;0.98;;
54539;SDS011;40438;52.992;18.604;2022-08-06T08:07:18;0.88;;;0.60;;
54539;SDS011;40438;52.992;18.604;2022-08-06T08:09:46;2.45;;;0.77;;
54539;SDS011;40438;52.992;18.604;2022-08-06T08:12:13;3.08;;;0.90;;
54539;SDS011;40438;52.992;18.604;2022-08-06T08:14:42;2.22;;;0.60;;
54539;SDS011;40438;52.992;18.604;2022-08-06T08:17:09;1.60;;;0.85;;
54539;SDS011;40438;52.992;18.604;2022-08-06T08:19:35;3.63;;;0.80;;
54539;SDS011;40438;52.992;18.604;2022-08-06T08:22:02;1.88;;;0.70;;
54539;SDS011;40438;52.992;18.604;2022-08-06T08:24:28;1.40;;;0.82;;
54539;SDS011;40438;52.992;18.604;2022-08-06T08:26:56;1.55;;;0.90;;
54539;SDS011;40438;52.992;18.604;2022-08-06T08:29:22;1.60;;;0.80;;
54539;SDS011;40438;52.992;18.604;2022-08-06T08:31:48;1.55;;;0.90;;
54539;SDS011;40438;52.992;18.604;2022-08-06T08:34:13;3.47;;;0.80;;
54539;SDS011;40438;52.992;18.604;2022-08-06T08:36:39;6.50;;;1.50;;
54539;SDS011;40438;52.992;18.604;2022-08-06T08:39:05;3.65;;;1.00;;
54539;SDS011;40438;52.992;18.604;2022-08-06T08:41:33;5.07;;;1.00;;
54539;SDS011;40438;52.992;18.604;2022-08-06T08:44:03;1.95;;;1.02;;
54539;SDS011;40438;52.992;18.604;2022-08-06T08:46:32;2.40;;;1.10;;
54539;SDS011;40438;52.992;18.604;2022-08-06T08:49:00;3.65;;;1.40;;
54539;SDS011;40438;52.992;18.604;2022-08-06T08:51:27;5.55;;;1.00;;
54539;SDS011;40438;52.992;18.604;2022-08-06T08:53:54;4.32;;;1.10;;
54539;SDS011;40438;52.992;18.604;2022-08-06T08:56:20;3.30;;;1.05;;
54539;SDS011;40438;52.992;18.604;2022-08-06T08:58:47;2.78;;;1.60;;
54539;SDS011;40438;52.992;18.604;2022-08-06T09:01:15;1.63;;;0.93;;
54539;SDS011;40438;52.992;18.604;2022-08-06T09:03:41;1.30;;;0.93;;
54539;SDS011;40438;52.992;18.604;2022-08-06T09:06:07;2.50;;;0.90;;
54539;SDS011;40438;52.992;18.604;2022-08-06T09:08:33;2.13;;;1.00;;
54539;SDS011;40438;52.992;18.604;2022-08-06T09:10:59;2.90;;;0.85;;
54539;SDS011;40438;52.992;18.604;2022-08-06T09:13:25;2.08;;;1.00;;
54539;SDS011;40438;52.992;18.604;2022-08-06T09:15:51;2.90;;;1.10;;
54539;SDS011;40438;52.992;18.604;2022-08-06T09:18:18;0.90;;;0.80;;
54539;SDS011;40438;52.992;18.604;2022-08-06T09:20:45;1.48;;;1.00;;
54539;SDS011;40438;52.992;18.604;2022-08-06T09:23:11;2.10;;;0.80;;
54539;SDS011;40438;52.992;18.604;2022-08-06T09:25:37;3.75;;;0.90;;
54539;SDS011;40438;52.992;18.604;2022-08-06T09:28:08;2.17;;;1.02;;
54539;SDS011;40438;52.992;18.604;2022-08-06T09:30:34;2.92;;;0.85;;
54539;SDS011;40438;52.992;18.604;2022-08-06T09:33:01;2.83;;;1.10;;
54539;SDS011;40438;52.992;18.604;2022-08-06T09:35:29;3.05;;;1.30;;
54539;SDS011;40438;52.992;18.604;2022-08-06T09:37:59;1.63;;;1.05;;
54539;SDS011;40438;52.992;18.604;2022-08-06T09:40:26;1.00;;;0.90;;
54539;SDS011;40438;52.992;18.604;2022-08-06T09:42:52;2.33;;;1.33;;
54539;SDS011;40438;52.992;18.604;2022-08-06T09:45:18;1.63;;;0.90;;
54539;SDS011;40438;52.992;18.604;2022-08-06T09:47:46;2.33;;;1.00;;
54539;SDS011;40438;52.992;18.604;2022-08-06T09:50:14;1.60;;;0.90;;
54539;SDS011;40438;52.992;18.604;2022-08-06T09:52:41;1.88;;;1.05;;
54539;SDS011;40438;52.992;18.604;2022-08-06T09:55:07;1.52;;;1.23;;
54539;SDS011;40438;52.992;18.604;2022-08-06T09:57:52;2.20;;;1.23;;
54539;SDS011;40438;52.992;18.604;2022-08-06T10:00:24;1.33;;;1.02;;
54539;SDS011;40438;52.992;18.604;2022-08-06T10:02:54;1.88;;;1.30;;
54539;SDS011;40438;52.992;18.604;2022-08-06T10:05:21;1.85;;;1.13;;
54539;SDS011;40438;52.992;18.604;2022-08-06T10:08:01;1.10;;;1.00;;
54539;SDS011;40438;52.992;18.604;2022-08-06T10:10:38;4.40;;;1.58;;
54539;SDS011;40438;52.992;18.604;2022-08-06T10:13:10;2.22;;;1.55;;
54539;SDS011;40438;52.992;18.604;2022-08-06T10:15:40;2.42;;;1.90;;
54539;SDS011;40438;52.992;18.604;2022-08-06T10:18:06;2.70;;;1.33;;
54539;SDS011;40438;52.992;18.604;2022-08-06T10:20:31;2.75;;;1.20;;
54539;SDS011;40438;52.992;18.604;2022-08-06T10:22:59;2.13;;;1.30;;
54539;SDS011;40438;52.992;18.604;2022-08-06T10:25:25;2.63;;;1.20;;
54539;SDS011;40438;52.992;18.604;2022-08-06T10:27:53;2.05;;;0.93;;
54539;SDS011;40438;52.992;18.604;2022-08-06T10:30:19;2.65;;;1.50;;
54539;SDS011;40438;52.992;18.604;2022-08-06T10:32:46;2.72;;;1.33;;
54539;SDS011;40438;52.992;18.604;2022-08-06T10:35:15;2.95;;;1.00;;
54539;SDS011;40438;52.992;18.604;2022-08-06T10:37:43;3.50;;;0.90;;
54539;SDS011;40438;52.992;18.604;2022-08-06T10:40:12;1.33;;;0.90;;
54539;SDS011;40438;52.992;18.604;2022-08-06T10:42:39;3.22;;;1.10;;
54539;SDS011;40438;52.992;18.604;2022-08-06T10:45:05;1.15;;;0.90;;
54539;SDS011;40438;52.992;18.604;2022-08-06T10:47:32;1.30;;;0.77;;
54539;SDS011;40438;52.992;18.604;2022-08-06T10:49:59;3.55;;;0.90;;
54539;SDS011;40438;52.992;18.604;2022-08-06T10:52:25;4.55;;;0.85;;
54539;SDS011;40438;52.992;18.604;2022-08-06T10:54:51;3.55;;;0.73;;
54539;SDS011;40438;52.992;18.604;2022-08-06T10:57:20;3.58;;;0.70;;
54539;SDS011;40438;52.992;18.604;2022-08-06T10:59:47;2.05;;;0.93;;
54539;SDS011;40438;52.992;18.604;2022-08-06T11:02:16;5.05;;;0.93;;
54539;SDS011;40438;52.992;18.604;2022-08-06T11:04:52;0.73;;;0.65;;
54539;SDS011;40438;52.992;18.604;2022-08-06T11:07:37;2.50;;;0.70;;
54539;SDS011;40438;52.992;18.604;2022-08-06T11:10:20;1.70;;;0.73;;
54539;SDS011;40438;52.992;18.604;2022-08-06T11:12:58;6.60;;;0.90;;
54539;SDS011;40438;52.992;18.604;2022-08-06T11:15:36;1.55;;;0.73;;
54539;SDS011;40438;52.992;18.604;2022-08-06T11:18:05;2.38;;;0.80;;
54539;SDS011;40438;52.992;18.604;2022-08-06T11:20:36;0.80;;;0.70;;
54539;SDS011;40438;52.992;18.604;2022-08-06T11:23:04;6.13;;;1.10;;
54539;SDS011;40438;52.992;18.604;2022-08-06T11:25:46;7.03;;;1.00;;
54539;SDS011;40438;52.992;18.604;2022-08-06T11:28:14;10.73;;;1.95;;
54539;SDS011;40438;52.992;18.604;2022-08-06T11:30:41;4.45;;;0.85;;
54539;SDS011;40438;52.992;18.604;2022-08-06T11:33:08;2.25;;;1.13;;
54539;SDS011;40438;52.992;18.604;2022-08-06T11:35:39;2.35;;;0.93;;
54539;SDS011;40438;52.992;18.604;2022-08-06T11:38:14;2.38;;;0.80;;
54539;SDS011;40438;52.992;18.604;2022-08-06T11:40:54;0.60;;;0.60;;
54539;SDS011;40438;52.992;18.604;2022-08-06T11:43:43;2.08;;;0.80;;
54539;SDS011;40438;52.992;18.604;2022-08-06T11:46:17;2.10;;;0.95;;
54539;SDS011;40438;52.992;18.604;2022-08-06T11:54:09;4.35;;;0.65;;
54539;SDS011;40438;52.992;18.604;2022-08-06T11:56:36;0.93;;;0.50;;
54539;SDS011;40438;52.992;18.604;2022-08-06T11:59:45;1.23;;;0.77;;
54539;SDS011;40438;52.992;18.604;2022-08-06T12:02:13;0.65;;;0.57;;
54539;SDS011;40438;52.992;18.604;2022-08-06T12:04:40;1.15;;;0.63;;
54539;SDS011;40438;52.992;18.604;2022-08-06T12:07:13;1.05;;;0.50;;
54539;SDS011;40438;52.992;18.604;2022-08-06T12:09:40;0.73;;;0.52;;
54539;SDS011;40438;52.992;18.604;2022-08-06T12:15:01;3.50;;;0.57;;
54539;SDS011;40438;52.992;18.604;2022-08-06T12:17:29;0.82;;;0.57;;
54539;SDS011;40438;52.992;18.604;2022-08-06T12:19:56;1.17;;;0.60;;
54539;SDS011;40438;52.992;18.604;2022-08-06T12:22:23;0.52;;;0.50;;
54539;SDS011;40438;52.992;18.604;2022-08-06T12:24:49;3.92;;;1.10;;
54539;SDS011;40438;52.992;18.604;2022-08-06T12:27:16;0.77;;;0.50;;
54539;SDS011;40438;52.992;18.604;2022-08-06T12:29:43;0.90;;;0.50;;
54539;SDS011;40438;52.992;18.604;2022-08-06T12:34:56;0.73;;;0.50;;
54539;SDS011;40438;52.992;18.604;2022-08-06T12:37:32;1.10;;;0.60;;
54539;SDS011;40438;52.992;18.604;2022-08-06T12:39:59;1.73;;;0.70;;
54539;SDS011;40438;52.992;18.604;2022-08-06T12:42:25;4.07;;;1.00;;
54539;SDS011;40438;52.992;18.604;2022-08-06T12:44:52;0.95;;;0.57;;
54539;SDS011;40438;52.992;18.604;2022-08-06T12:47:18;1.75;;;0.60;;
54539;SDS011;40438;52.992;18.604;2022-08-06T12:49:46;1.73;;;0.82;;
54539;SDS011;40438;52.992;18.604;2022-08-06T12:52:12;0.80;;;0.60;;
54539;SDS011;40438;52.992;18.604;2022-08-06T12:54:38;1.00;;;0.80;;
54539;SDS011;40438;52.992;18.604;2022-08-06T12:57:04;1.67;;;0.50;;
54539;SDS011;40438;52.992;18.604;2022-08-06T12:59:30;1.42;;;0.80;;
54539;SDS011;40438;52.992;18.604;2022-08-06T13:01:56;1.77;;;0.63;;
54539;SDS011;40438;52.992;18.604;2022-08-06T13:04:23;1.60;;;0.70;;
54539;SDS011;40438;52.992;18.604;2022-08-06T13:06:51;3.03;;;0.52;;
54539;SDS011;40438;52.992;18.604;2022-08-06T13:09:17;2.55;;;0.55;;
54539;SDS011;40438;52.992;18.604;2022-08-06T13:11:52;1.02;;;0.55;;
54539;SDS011;40438;52.992;18.604;2022-08-06T13:14:18;1.42;;;0.55;;
54539;SDS011;40438;52.992;18.604;2022-08-06T13:16:44;2.58;;;0.60;;
54539;SDS011;40438;52.992;18.604;2022-08-06T13:19:12;0.70;;;0.52;;
54539;SDS011;40438;52.992;18.604;2022-08-06T13:21:39;2.35;;;0.80;;
54539;SDS011;40438;52.992;18.604;2022-08-06T13:24:07;1.95;;;0.85;;
54539;SDS011;40438;52.992;18.604;2022-08-06T13:26:34;0.43;;;0.43;;
54539;SDS011;40438;52.992;18.604;2022-08-06T13:29:12;1.67;;;0.73;;
54539;SDS011;40438;52.992;18.604;2022-08-06T13:31:39;0.45;;;0.45;;
54539;SDS011;40438;52.992;18.604;2022-08-06T13:34:06;0.50;;;0.47;;
54539;SDS011;40438;52.992;18.604;2022-08-06T13:36:33;0.82;;;0.50;;
54539;SDS011;40438;52.992;18.604;2022-08-06T13:38:59;1.15;;;0.60;;
54539;SDS011;40438;52.992;18.604;2022-08-06T13:41:27;1.40;;;0.60;;
54539;SDS011;40438;52.992;18.604;2022-08-06T13:43:53;4.05;;;0.60;;
54539;SDS011;40438;52.992;18.604;2022-08-06T13:46:19;0.90;;;0.40;;
54539;SDS011;40438;52.992;18.604;2022-08-06T13:48:45;2.10;;;0.60;;
54539;SDS011;40438;52.992;18.604;2022-08-06T13:51:12;2.88;;;0.70;;
54539;SDS011;40438;52.992;18.604;2022-08-06T13:53:39;2.75;;;0.57;;
54539;SDS011;40438;52.992;18.604;2022-08-06T13:56:05;0.50;;;0.50;;
54539;SDS011;40438;52.992;18.604;2022-08-06T13:58:32;1.35;;;0.60;;
54539;SDS011;40438;52.992;18.604;2022-08-06T14:00:58;0.50;;;0.40;;
54539;SDS011;40438;52.992;18.604;2022-08-06T14:03:24;0.85;;;0.40;;
54539;SDS011;40438;52.992;18.604;2022-08-06T14:05:50;1.75;;;0.30;;
54539;SDS011;40438;52.992;18.604;2022-08-06T14:08:16;1.23;;;0.43;;
54539;SDS011;40438;52.992;18.604;2022-08-06T14:10:42;0.85;;;0.35;;
54539;SDS011;40438;52.992;18.604;2022-08-06T14:13:07;3.10;;;0.60;;
54539;SDS011;40438;52.992;18.604;2022-08-06T14:15:34;2.75;;;0.50;;
54539;SDS011;40438;52.992;18.604;2022-08-06T14:18:00;1.83;;;0.55;;
54539;SDS011;40438;52.992;18.604;2022-08-06T14:20:26;1.73;;;0.30;;
54539;SDS011;40438;52.992;18.604;2022-08-06T14:22:52;0.82;;;0.30;;
54539;SDS011;40438;52.992;18.604;2022-08-06T14:25:18;1.45;;;0.30;;
54539;SDS011;40438;52.992;18.604;2022-08-06T14:27:43;1.95;;;0.50;;
54539;SDS011;40438;52.992;18.604;2022-08-06T14:30:09;1.17;;;0.52;;
54539;SDS011;40438;52.992;18.604;2022-08-06T14:32:38;1.58;;;0.50;;
54539;SDS011;40438;52.992;18.604;2022-08-06T14:35:04;0.85;;;0.43;;
54539;SDS011;40438;52.992;18.604;2022-08-06T14:37:30;0.93;;;0.50;;
54539;SDS011;40438;52.992;18.604;2022-08-06T14:39:56;1.10;;;0.45;;
54539;SDS011;40438;52.992;18.604;2022-08-06T14:42:22;0.65;;;0.25;;
54539;SDS011;40438;52.992;18.604;2022-08-06T14:44:48;0.77;;;0.40;;
54539;SDS011;40438;52.992;18.604;2022-08-06T14:47:13;0.90;;;0.40;;
54539;SDS011;40438;52.992;18.604;2022-08-06T14:49:40;0.70;;;0.30;;
54539;SDS011;40438;52.992;18.604;2022-08-06T14:52:07;0.82;;;0.40;;
54539;SDS011;40438;52.992;18.604;2022-08-06T14:54:33;0.70;;;0.40;;
54539;SDS011;40438;52.992;18.604;2022-08-06T14:57:00;0.98;;;0.30;;